Time;durP1;ratioP1;P1;durP2;ratioP2;P2;SDS_P1;SDS_P2;PMS_P1;PMS_P2;Temp;Humidity;BMP_temperature;BMP_pressure;BME280_temperature;BME280_humidity;BME280_pressure;Samples;Min_cycle;Max_cycle;Signal;HPM_P1;HPM_P2
2023/12/10 00:00:06;;;;;;;;;;;8.10;98.80;;;;;;6277179;22;19978;-84
2023/12/10 00:02:32;;;;;;;;;;;8.20;98.90;;;;;;6275720;22;19899;-83
2023/12/10 00:04:57;;;;;;;;;;;8.20;98.90;;;;;;6276134;22;20217;-84
2023/12/10 00:07:23;;;;;;;;;;;8.20;98.70;;;;;;6276129;22;19899;-83
2023/12/10 00:09:48;;;;;;;;;;;8.20;98.70;;;;;;6276722;22;19936;-83
2023/12/10 00:12:14;;;;;;;;;;;8.20;98.80;;;;;;6276548;22;20214;-84
2023/12/10 00:14:39;;;;;;;;;;;8.20;98.80;;;;;;6250191;22;19926;-83
2023/12/10 00:17:05;;;;;;;;;;;8.10;98.90;;;;;;6276751;22;19910;-84
2023/12/10 00:19:31;;;;;;;;;;;8.10;99.00;;;;;;6277231;22;19935;-84
2023/12/10 00:21:57;;;;;;;;;;;8.10;99.00;;;;;;6278929;22;19923;-84
2023/12/10 00:24:23;;;;;;;;;;;8.10;99.10;;;;;;6251998;22;19906;-84
2023/12/10 00:26:48;;;;;;;;;;;8.10;99.10;;;;;;6278678;22;19926;-83
2023/12/10 00:29:14;;;;;;;;;;;8.10;99.20;;;;;;6251777;22;20313;-84
2023/12/10 00:31:43;;;;;;;;;;;8.10;99.30;;;;;;6278665;22;19903;-84
2023/12/10 00:34:09;;;;;;;;;;;8.20;99.20;;;;;;6252076;22;19970;-83
2023/12/10 00:36:34;;;;;;;;;;;8.20;99.20;;;;;;6250947;22;20345;-84
2023/12/10 00:39:00;;;;;;;;;;;8.20;99.20;;;;;;6278423;22;19951;-83
2023/12/10 00:41:26;;;;;;;;;;;8.20;99.10;;;;;;6278958;22;19899;-84
2023/12/10 00:43:51;;;;;;;;;;;8.20;99.10;;;;;;6251752;22;19906;-83
2023/12/10 00:46:17;;;;;;;;;;;8.20;99.10;;;;;;6278765;22;19903;-84
2023/12/10 00:48:43;;;;;;;;;;;8.20;99.10;;;;;;6278414;22;20314;-83
2023/12/10 00:51:17;;;;;;;;;;;8.20;99.00;;;;;;6278976;22;19903;-83
2023/12/10 00:53:43;;;;;;;;;;;8.20;99.00;;;;;;6251421;22;19953;-83
2023/12/10 00:56:08;;;;;;;;;;;8.20;99.10;;;;;;6278032;22;19899;-84
2023/12/10 00:58:34;;;;;;;;;;;8.20;99.10;;;;;;6278388;22;19907;-82
2023/12/10 01:01:00;;;;;;;;;;;8.20;99.00;;;;;;6278875;22;19905;-82
2023/12/10 01:03:25;;;;;;;;;;;8.20;99.00;;;;;;6278570;22;20290;-83
2023/12/10 01:05:51;;;;;;;;;;;8.10;99.10;;;;;;6250988;22;19906;-82
2023/12/10 01:08:17;;;;;;;;;;;8.10;99.20;;;;;;6277747;22;19953;-83
2023/12/10 01:10:43;;;;;;;;;;;8.10;99.30;;;;;;6277718;22;19942;-83
2023/12/10 01:13:08;;;;;;;;;;;8.10;99.40;;;;;;6277680;22;19903;-82
2023/12/10 01:15:34;;;;;;;;;;;8.10;99.40;;;;;;6278153;22;20313;-83
2023/12/10 01:18:00;;;;;;;;;;;8.10;99.40;;;;;;6278240;22;20313;-83
2023/12/10 01:20:30;;;;;;;;;;;8.10;99.50;;;;;;6278228;22;19899;-83
2023/12/10 01:22:56;;;;;;;;;;;8.10;99.60;;;;;;6278070;22;20290;-83
2023/12/10 01:25:22;;;;;;;;;;;8.10;99.60;;;;;;6251451;22;19906;-83
2023/12/10 01:27:47;;;;;;;;;;;8.10;99.50;;;;;;6278149;22;19907;-83
2023/12/10 01:30:13;;;;;;;;;;;8.10;99.60;;;;;;6278082;22;19910;-83
2023/12/10 01:32:40;;;;;;;;;;;8.10;99.60;;;;;;6250891;22;20375;-83
2023/12/10 01:35:07;;;;;;;;;;;8.10;99.60;;;;;;6278305;22;19977;-83
2023/12/10 01:37:33;;;;;;;;;;;8.10;99.50;;;;;;6277456;22;19911;-83
2023/12/10 01:39:59;;;;;;;;;;;8.00;99.50;;;;;;6277714;22;20245;-83
2023/12/10 01:42:24;;;;;;;;;;;8.00;99.60;;;;;;6250664;22;19934;-82
2023/12/10 01:44:50;;;;;;;;;;;8.00;99.60;;;;;;6278253;22;19905;-83
2023/12/10 01:47:18;;;;;;;;;;;8.00;99.60;;;;;;6277654;22;19949;-83
2023/12/10 01:49:44;;;;;;;;;;;8.00;99.70;;;;;;6278138;22;19899;-83
2023/12/10 01:52:10;;;;;;;;;;;7.90;99.80;;;;;;6277946;22;19903;-83
2023/12/10 01:54:36;;;;;;;;;;;7.90;99.80;;;;;;6278094;22;19899;-85
2023/12/10 01:57:02;;;;;;;;;;;7.90;99.80;;;;;;6277071;22;19899;-82
2023/12/10 01:59:28;;;;;;;;;;;7.90;99.80;;;;;;6277592;22;19986;-83
2023/12/10 02:01:53;;;;;;;;;;;7.80;99.90;;;;;;6277930;22;19953;-82
2023/12/10 02:04:19;;;;;;;;;;;7.80;99.90;;;;;;6277788;22;19899;-83
2023/12/10 02:06:46;;;;;;;;;;;7.80;99.90;;;;;;6277797;22;20233;-85
2023/12/10 02:09:15;;;;;;;;;;;7.70;99.90;;;;;;6277902;22;19900;-85
2023/12/10 02:11:41;;;;;;;;;;;7.60;99.90;;;;;;6277676;22;19903;-86
2023/12/10 02:14:06;;;;;;;;;;;7.60;99.90;;;;;;6277874;22;19899;-86
2023/12/10 02:16:32;;;;;;;;;;;7.60;99.90;;;;;;6277432;22;19900;-85
2023/12/10 02:18:57;;;;;;;;;;;7.60;99.90;;;;;;6277612;22;19923;-85
2023/12/10 02:21:24;;;;;;;;;;;7.60;99.90;;;;;;6277277;22;19903;-85
2023/12/10 02:23:55;;;;;;;;;;;7.70;99.90;;;;;;6277134;22;19968;-85
2023/12/10 02:26:20;;;;;;;;;;;7.70;99.90;;;;;;6250827;22;19899;-85
2023/12/10 02:28:47;;;;;;;;;;;7.70;99.90;;;;;;6278093;22;19982;-86
2023/12/10 02:31:12;;;;;;;;;;;7.70;99.90;;;;;;6277667;22;19910;-86
2023/12/10 02:33:38;;;;;;;;;;;7.70;99.90;;;;;;6277756;22;19899;-86
2023/12/10 02:36:04;;;;;;;;;;;7.80;99.90;;;;;;6250468;22;20233;-86
2023/12/10 02:38:29;;;;;;;;;;;7.80;99.90;;;;;;6277400;22;19931;-86
2023/12/10 02:40:55;;;;;;;;;;;7.80;99.90;;;;;;6277769;22;19899;-86
2023/12/10 02:43:21;;;;;;;;;;;7.70;99.80;;;;;;6276854;22;19922;-86
2023/12/10 02:45:47;;;;;;;;;;;7.70;99.80;;;;;;6276815;22;19906;-86
2023/12/10 02:48:12;;;;;;;;;;;7.70;99.90;;;;;;6277204;22;19903;-86
2023/12/10 02:50:38;;;;;;;;;;;7.70;99.90;;;;;;6250228;22;19903;-86
2023/12/10 02:53:03;;;;;;;;;;;7.80;99.90;;;;;;6277336;22;19899;-85
2023/12/10 02:55:29;;;;;;;;;;;7.80;99.80;;;;;;6277399;22;20037;-86
2023/12/10 02:57:55;;;;;;;;;;;7.80;99.80;;;;;;6277359;22;19899;-85
2023/12/10 03:00:20;;;;;;;;;;;7.80;99.80;;;;;;6277050;22;19906;-85
2023/12/10 03:02:46;;;;;;;;;;;7.80;99.90;;;;;;6277025;22;19899;-85
2023/12/10 03:05:11;;;;;;;;;;;7.80;99.90;;;;;;6277272;22;19990;-83
2023/12/10 03:07:37;;;;;;;;;;;7.70;99.90;;;;;;6276763;22;20257;-84
2023/12/10 03:10:02;;;;;;;;;;;7.70;99.90;;;;;;6276734;22;19899;-83
2023/12/10 03:12:28;;;;;;;;;;;7.70;99.90;;;;;;6249904;22;19899;-83
2023/12/10 03:14:54;;;;;;;;;;;7.70;99.90;;;;;;6277219;22;20290;-83
2023/12/10 03:17:19;;;;;;;;;;;7.70;99.90;;;;;;6276828;22;19987;-83
2023/12/10 03:19:45;;;;;;;;;;;7.70;99.90;;;;;;6277001;22;19907;-83
2023/12/10 03:22:10;;;;;;;;;;;7.70;99.90;;;;;;6276886;22;19907;-83
2023/12/10 03:24:36;;;;;;;;;;;7.70;99.90;;;;;;6276927;22;19899;-82
2023/12/10 03:27:02;;;;;;;;;;;7.70;99.90;;;;;;6277072;22;20199;-83
2023/12/10 03:29:27;;;;;;;;;;;7.70;99.90;;;;;;6277402;22;19921;-83
2023/12/10 03:31:53;;;;;;;;;;;7.60;99.90;;;;;;6276992;22;20294;-84
2023/12/10 03:34:18;;;;;;;;;;;7.60;99.90;;;;;;6276973;22;19914;-84
2023/12/10 03:36:44;;;;;;;;;;;7.60;99.90;;;;;;6276675;22;20227;-84
2023/12/10 03:39:09;;;;;;;;;;;7.60;99.90;;;;;;6277024;22;19934;-84
2023/12/10 03:41:35;;;;;;;;;;;7.60;99.90;;;;;;6277244;22;19923;-83
2023/12/10 03:44:00;;;;;;;;;;;7.50;99.90;;;;;;6276747;22;20234;-83
2023/12/10 03:46:26;;;;;;;;;;;7.50;99.90;;;;;;6277104;22;20238;-83
2023/12/10 03:48:51;;;;;;;;;;;7.50;99.90;;;;;;6276479;22;19927;-83
2023/12/10 03:51:17;;;;;;;;;;;7.50;99.90;;;;;;6276330;22;19913;-83
2023/12/10 03:53:43;;;;;;;;;;;7.50;99.90;;;;;;6249024;22;19973;-83
2023/12/10 03:56:10;;;;;;;;;;;7.40;99.90;;;;;;6276145;22;19963;-83
2023/12/10 03:58:36;;;;;;;;;;;7.40;99.90;;;;;;6276169;22;19922;-83
2023/12/10 04:01:02;;;;;;;;;;;7.40;99.90;;;;;;6276594;22;20306;-83
2023/12/10 04:03:27;;;;;;;;;;;7.40;99.90;;;;;;6276740;22;20369;-84
2023/12/10 04:05:53;;;;;;;;;;;7.40;99.90;;;;;;6276796;22;20441;-83
2023/12/10 04:08:19;;;;;;;;;;;7.30;99.90;;;;;;6276617;22;19899;-83
2023/12/10 04:10:45;;;;;;;;;;;7.30;99.90;;;;;;6276666;22;19910;-83
2023/12/10 04:13:10;;;;;;;;;;;7.30;99.90;;;;;;6276972;22;20189;-83
2023/12/10 04:15:36;;;;;;;;;;;7.30;99.90;;;;;;6277032;22;19982;-83
2023/12/10 04:18:01;;;;;;;;;;;7.40;99.90;;;;;;6276606;22;19906;-83
2023/12/10 04:20:27;;;;;;;;;;;7.40;99.90;;;;;;6276738;22;19903;-83
2023/12/10 04:22:52;;;;;;;;;;;7.50;99.90;;;;;;6277008;22;19938;-82
2023/12/10 04:25:18;;;;;;;;;;;7.50;99.90;;;;;;6276351;22;19900;-82
2023/12/10 04:27:43;;;;;;;;;;;7.50;99.90;;;;;;6276064;22;19899;-83
2023/12/10 04:30:09;;;;;;;;;;;7.50;99.90;;;;;;6275976;22;19899;-83
2023/12/10 04:32:35;;;;;;;;;;;7.50;99.90;;;;;;6276791;22;19952;-83
2023/12/10 04:35:01;;;;;;;;;;;7.50;99.90;;;;;;6276664;22;19899;-83
2023/12/10 04:37:26;;;;;;;;;;;7.50;99.90;;;;;;6249357;22;19938;-83
2023/12/10 04:39:53;;;;;;;;;;;7.50;99.90;;;;;;6249680;22;19945;-83
2023/12/10 04:42:18;;;;;;;;;;;7.50;99.90;;;;;;6276405;22;20207;-82
2023/12/10 04:44:44;;;;;;;;;;;7.50;99.90;;;;;;6276957;22;20020;-83
2023/12/10 04:47:11;;;;;;;;;;;7.50;99.90;;;;;;6249812;22;20372;-83
2023/12/10 04:49:36;;;;;;;;;;;7.50;99.90;;;;;;6276342;22;19917;-83
2023/12/10 04:52:02;;;;;;;;;;;7.60;99.90;;;;;;6276733;22;20325;-83
2023/12/10 04:54:27;;;;;;;;;;;7.60;99.90;;;;;;6276574;22;20317;-83
2023/12/10 04:56:53;;;;;;;;;;;7.60;99.90;;;;;;6276386;22;19927;-83
2023/12/10 04:59:19;;;;;;;;;;;7.60;99.90;;;;;;6276605;22;20323;-83
2023/12/10 05:01:44;;;;;;;;;;;7.60;99.90;;;;;;6276292;22;19900;-84
2023/12/10 05:04:10;;;;;;;;;;;7.70;99.90;;;;;;6276388;22;19976;-84
2023/12/10 05:06:35;;;;;;;;;;;7.60;99.90;;;;;;6277601;22;20245;-84
2023/12/10 05:09:03;;;;;;;;;;;7.60;99.90;;;;;;6277492;22;19910;-83
2023/12/10 05:11:28;;;;;;;;;;;7.60;99.90;;;;;;6278079;22;19972;-83
2023/12/10 05:13:54;;;;;;;;;;;7.60;99.90;;;;;;6250360;22;20810;-82
2023/12/10 05:16:19;;;;;;;;;;;7.50;99.90;;;;;;6278081;22;19922;-82
2023/12/10 05:18:45;;;;;;;;;;;7.50;99.90;;;;;;6278261;22;19903;-83
2023/12/10 05:21:11;;;;;;;;;;;7.50;99.90;;;;;;6278621;22;19978;-84
2023/12/10 05:23:36;;;;;;;;;;;7.50;99.90;;;;;;6278177;22;19906;-84
2023/12/10 05:26:02;;;;;;;;;;;7.50;99.90;;;;;;6250587;22;19966;-84
2023/12/10 05:28:27;;;;;;;;;;;7.50;99.90;;;;;;6277789;22;19903;-83
2023/12/10 05:30:53;;;;;;;;;;;7.50;99.90;;;;;;6278399;22;19903;-84
2023/12/10 05:33:18;;;;;;;;;;;7.50;99.90;;;;;;6277764;22;19903;-84
2023/12/10 05:35:44;;;;;;;;;;;7.60;99.90;;;;;;6277867;22;20321;-84
2023/12/10 05:38:09;;;;;;;;;;;7.60;99.90;;;;;;6278081;22;20207;-84
2023/12/10 05:40:35;;;;;;;;;;;7.60;99.90;;;;;;6278018;22;19926;-85
2023/12/10 05:43:01;;;;;;;;;;;7.60;99.90;;;;;;6277585;22;19922;-83
2023/12/10 05:45:27;;;;;;;;;;;7.60;99.90;;;;;;6277761;22;19903;-83
2023/12/10 05:47:53;;;;;;;;;;;7.60;99.90;;;;;;6277263;22;19903;-83
2023/12/10 05:50:19;;;;;;;;;;;7.60;99.90;;;;;;6277596;22;19899;-83
2023/12/10 05:52:44;;;;;;;;;;;7.60;99.90;;;;;;6276979;22;19905;-83
2023/12/10 05:55:10;;;;;;;;;;;7.60;99.90;;;;;;6276688;22;19960;-83
2023/12/10 05:57:35;;;;;;;;;;;7.60;99.90;;;;;;6276866;22;20463;-83
2023/12/10 06:00:01;;;;;;;;;;;7.60;99.90;;;;;;6276796;22;19899;-83
2023/12/10 06:02:26;;;;;;;;;;;7.60;99.90;;;;;;6277573;22;20329;-83
2023/12/10 06:04:52;;;;;;;;;;;7.60;99.90;;;;;;6277462;22;19906;-83
2023/12/10 06:07:18;;;;;;;;;;;7.60;99.90;;;;;;6277397;22;19903;-83
2023/12/10 06:09:43;;;;;;;;;;;7.60;99.90;;;;;;6277128;22;20352;-84
2023/12/10 06:12:09;;;;;;;;;;;7.60;99.90;;;;;;6276710;22;20344;-84
2023/12/10 06:14:35;;;;;;;;;;;7.60;99.90;;;;;;6277035;22;20301;-85
2023/12/10 06:17:00;;;;;;;;;;;7.60;99.90;;;;;;6277548;22;20233;-84
2023/12/10 06:19:26;;;;;;;;;;;7.70;99.90;;;;;;6278009;22;19907;-84
2023/12/10 06:21:51;;;;;;;;;;;7.60;99.90;;;;;;6277061;22;19906;-84
2023/12/10 06:24:17;;;;;;;;;;;7.70;99.90;;;;;;6249983;22;19905;-86
2023/12/10 06:26:42;;;;;;;;;;;7.70;99.90;;;;;;6248753;22;19895;-86
2023/12/10 06:29:08;;;;;;;;;;;7.70;99.90;;;;;;6276017;22;19899;-84
2023/12/10 06:31:34;;;;;;;;;;;7.70;99.90;;;;;;6276566;22;20378;-85
2023/12/10 06:33:59;;;;;;;;;;;7.70;99.90;;;;;;6277009;22;20229;-84
2023/12/10 06:36:25;;;;;;;;;;;7.70;99.90;;;;;;6276636;22;19986;-84
2023/12/10 06:38:50;;;;;;;;;;;7.70;99.90;;;;;;6276735;22;19899;-84
2023/12/10 06:41:16;;;;;;;;;;;7.70;99.90;;;;;;6276696;22;19905;-84
2023/12/10 06:43:41;;;;;;;;;;;7.70;99.90;;;;;;6277699;22;20226;-84
2023/12/10 06:46:07;;;;;;;;;;;7.70;99.90;;;;;;6277159;22;19899;-84
2023/12/10 06:48:33;;;;;;;;;;;7.70;99.90;;;;;;6277176;22;19900;-83
2023/12/10 06:51:00;;;;;;;;;;;7.70;99.90;;;;;;6276835;22;20266;-83
2023/12/10 06:53:26;;;;;;;;;;;7.60;99.90;;;;;;6276936;22;20352;-84
2023/12/10 06:55:52;;;;;;;;;;;7.60;99.90;;;;;;6276589;22;19899;-84
2023/12/10 06:58:17;;;;;;;;;;;7.60;99.90;;;;;;6276161;22;20344;-85
2023/12/10 07:00:43;;;;;;;;;;;7.60;99.90;;;;;;6276761;22;19907;-83
2023/12/10 07:03:08;;;;;;;;;;;7.60;99.90;;;;;;6277393;22;19899;-84
2023/12/10 07:05:34;;;;;;;;;;;7.60;99.90;;;;;;6276682;22;20459;-84
2023/12/10 07:07:59;;;;;;;;;;;7.60;99.90;;;;;;6276585;22;19899;-84
2023/12/10 07:10:25;;;;;;;;;;;7.60;99.90;;;;;;6277037;22;20353;-84
2023/12/10 07:12:53;;;;;;;;;;;7.60;99.90;;;;;;6277170;22;19949;-84
2023/12/10 07:15:19;;;;;;;;;;;7.60;99.90;;;;;;6277102;22;19903;-84
2023/12/10 07:17:44;;;;;;;;;;;7.50;99.90;;;;;;6276474;22;19903;-84
2023/12/10 07:20:10;;;;;;;;;;;7.50;99.90;;;;;;6276583;22;19899;-84
2023/12/10 07:22:36;;;;;;;;;;;7.50;99.90;;;;;;6277484;22;19906;-85
2023/12/10 07:25:04;;;;;;;;;;;7.60;99.90;;;;;;6277241;22;20289;-84
2023/12/10 07:27:30;;;;;;;;;;;7.50;99.90;;;;;;6276825;22;19899;-84
2023/12/10 07:29:56;;;;;;;;;;;7.40;99.90;;;;;;6276161;22;19906;-84
2023/12/10 07:32:21;;;;;;;;;;;7.40;99.90;;;;;;6276583;22;19903;-86
2023/12/10 07:34:47;;;;;;;;;;;7.40;99.90;;;;;;6276565;22;19899;-85
2023/12/10 07:37:12;;;;;;;;;;;7.50;99.90;;;;;;6276235;22;19917;-85
2023/12/10 07:39:38;;;;;;;;;;;7.50;99.90;;;;;;6276588;22;20324;-84
2023/12/10 07:42:04;;;;;;;;;;;7.60;99.90;;;;;;6276932;22;19934;-85
2023/12/10 07:44:30;;;;;;;;;;;7.50;99.90;;;;;;6277235;22;20206;-83
2023/12/10 07:46:56;;;;;;;;;;;7.50;99.90;;;;;;6277142;22;19924;-83
2023/12/10 07:49:22;;;;;;;;;;;7.50;99.90;;;;;;6276897;22;19899;-85
2023/12/10 07:51:47;;;;;;;;;;;7.50;99.90;;;;;;6276918;22;19914;-83
2023/12/10 07:54:13;;;;;;;;;;;7.60;99.90;;;;;;6276939;22;19899;-81
2023/12/10 07:56:38;;;;;;;;;;;7.60;99.90;;;;;;6276758;22;19910;-84
2023/12/10 07:59:04;;;;;;;;;;;7.50;99.90;;;;;;6249829;22;19903;-83
2023/12/10 08:01:30;;;;;;;;;;;7.50;99.90;;;;;;6276320;22;19899;-84
2023/12/10 08:03:55;;;;;;;;;;;7.50;99.90;;;;;;6275751;22;19910;-85
2023/12/10 08:06:21;;;;;;;;;;;7.50;99.90;;;;;;6275670;22;19967;-86
2023/12/10 08:08:46;;;;;;;;;;;7.50;99.90;;;;;;6276521;22;19904;-86
2023/12/10 08:11:12;;;;;;;;;;;7.40;99.90;;;;;;6273517;22;19903;-85
2023/12/10 08:13:38;;;;;;;;;;;7.50;99.90;;;;;;6275266;22;19899;-86
2023/12/10 08:16:04;;;;;;;;;;;7.50;99.90;;;;;;6275378;22;20284;-85
2023/12/10 08:18:30;;;;;;;;;;;7.50;99.90;;;;;;6276810;22;19981;-85
2023/12/10 08:20:56;;;;;;;;;;;7.60;99.90;;;;;;6276855;22;19930;-85
2023/12/10 08:23:21;;;;;;;;;;;7.60;99.90;;;;;;6277051;22;19910;-85
2023/12/10 08:25:47;;;;;;;;;;;7.50;99.90;;;;;;6277341;22;19903;-85
2023/12/10 08:28:13;;;;;;;;;;;7.50;99.90;;;;;;6249423;22;19899;-86
2023/12/10 08:30:38;;;;;;;;;;;7.50;99.90;;;;;;6276247;22;19978;-85
2023/12/10 08:33:04;;;;;;;;;;;7.50;99.90;;;;;;6276816;22;19900;-85
2023/12/10 08:35:29;;;;;;;;;;;7.50;99.90;;;;;;6277145;22;19925;-86
2023/12/10 08:37:55;;;;;;;;;;;7.50;99.90;;;;;;6276681;22;19910;-85
2023/12/10 08:40:20;;;;;;;;;;;7.60;99.90;;;;;;6276790;22;20362;-87
2023/12/10 08:42:47;;;;;;;;;;;7.50;99.90;;;;;;6251789;22;20297;-87
2023/12/10 08:45:12;;;;;;;;;;;7.40;99.90;;;;;;6278584;22;19899;-87
2023/12/10 08:47:38;;;;;;;;;;;7.50;99.90;;;;;;6278720;22;19906;-87
2023/12/10 08:50:03;;;;;;;;;;;7.50;99.90;;;;;;6278453;22;19907;-87
2023/12/10 08:52:29;;;;;;;;;;;7.50;99.90;;;;;;6278296;22;19989;-85
2023/12/10 08:54:55;;;;;;;;;;;7.50;99.90;;;;;;6278344;22;19907;-86
2023/12/10 08:57:21;;;;;;;;;;;7.60;99.90;;;;;;6278009;22;20251;-85
2023/12/10 08:59:49;;;;;;;;;;;7.60;99.90;;;;;;6278296;22;19982;-85
2023/12/10 09:02:16;;;;;;;;;;;7.60;99.90;;;;;;6251874;22;20325;-86
2023/12/10 09:04:41;;;;;;;;;;;7.50;99.90;;;;;;6251824;22;20203;-85
2023/12/10 09:07:07;;;;;;;;;;;7.50;99.90;;;;;;6278642;22;20013;-86
2023/12/10 09:09:32;;;;;;;;;;;7.40;99.90;;;;;;6278505;22;19899;-86
2023/12/10 09:11:58;;;;;;;;;;;7.40;99.90;;;;;;6278244;22;19907;-86
2023/12/10 09:14:24;;;;;;;;;;;7.40;99.90;;;;;;6277860;22;19899;-87
2023/12/10 09:16:50;;;;;;;;;;;7.40;99.90;;;;;;6250221;22;19895;-92
2023/12/10 09:19:17;;;;;;;;;;;7.40;99.90;;;;;;6277524;22;19903;-85
2023/12/10 09:21:43;;;;;;;;;;;7.50;99.90;;;;;;6278331;22;19906;-83
2023/12/10 09:24:09;;;;;;;;;;;7.60;99.90;;;;;;6278076;22;19978;-85
2023/12/10 09:26:35;;;;;;;;;;;7.60;99.90;;;;;;6277008;22;19899;-86
2023/12/10 09:29:00;;;;;;;;;;;7.60;99.90;;;;;;6278364;22;19906;-85
2023/12/10 09:31:27;;;;;;;;;;;7.60;99.90;;;;;;6278139;22;20294;-85
2023/12/10 09:33:52;;;;;;;;;;;7.60;99.90;;;;;;6278502;22;19899;-85
2023/12/10 09:36:18;;;;;;;;;;;7.60;99.90;;;;;;6278117;22;19915;-85
2023/12/10 09:38:44;;;;;;;;;;;7.60;99.90;;;;;;6277751;22;19899;-86
2023/12/10 09:41:10;;;;;;;;;;;7.60;99.90;;;;;;6251037;22;19899;-85
2023/12/10 09:43:35;;;;;;;;;;;7.70;99.90;;;;;;6278548;22;19906;-85
2023/12/10 09:46:03;;;;;;;;;;;7.80;99.90;;;;;;6279182;22;19910;-86
2023/12/10 09:48:30;;;;;;;;;;;7.90;99.90;;;;;;6276295;22;19997;-85
2023/12/10 09:50:55;;;;;;;;;;;8.00;99.90;;;;;;6249816;22;19903;-85
2023/12/10 09:53:21;;;;;;;;;;;7.90;99.60;;;;;;6276056;22;19906;-86
2023/12/10 09:55:48;;;;;;;;;;;7.90;99.80;;;;;;6277500;22;19900;-86
2023/12/10 09:58:13;;;;;;;;;;;7.90;99.60;;;;;;6277591;22;19923;-86
2023/12/10 10:00:39;;;;;;;;;;;7.90;99.80;;;;;;6277754;22;20309;-87
2023/12/10 10:03:05;;;;;;;;;;;7.90;99.90;;;;;;6277783;22;19903;-85
2023/12/10 10:05:32;;;;;;;;;;;8.00;99.60;;;;;;6277198;22;19945;-85
2023/12/10 10:07:58;;;;;;;;;;;8.00;99.70;;;;;;6277385;22;20264;-86
2023/12/10 10:10:25;;;;;;;;;;;8.00;99.80;;;;;;6277621;22;19899;-85
2023/12/10 10:12:52;;;;;;;;;;;8.00;99.80;;;;;;6274922;22;19899;-86
2023/12/10 10:15:27;;;;;;;;;;;8.00;99.90;;;;;;6250014;22;19923;-83
2023/12/10 10:17:54;;;;;;;;;;;8.10;99.80;;;;;;6277693;22;19906;-83
2023/12/10 10:20:23;;;;;;;;;;;8.10;99.80;;;;;;6277768;22;19899;-83
2023/12/10 10:22:49;;;;;;;;;;;8.20;99.70;;;;;;6276956;22;19899;-83
2023/12/10 10:25:15;;;;;;;;;;;8.10;99.50;;;;;;6277506;22;19903;-83
2023/12/10 10:27:40;;;;;;;;;;;8.10;99.60;;;;;;6277520;22;19933;-83
2023/12/10 10:30:06;;;;;;;;;;;8.00;99.60;;;;;;6278061;22;19903;-83
2023/12/10 10:32:32;;;;;;;;;;;8.00;99.80;;;;;;6277448;22;19981;-83
2023/12/10 10:35:00;;;;;;;;;;;8.00;99.80;;;;;;6277401;22;19973;-83
2023/12/10 10:37:26;;;;;;;;;;;8.00;99.90;;;;;;6276755;22;19911;-83
2023/12/10 10:39:52;;;;;;;;;;;8.10;99.60;;;;;;6277409;22;19899;-84
2023/12/10 10:42:18;;;;;;;;;;;8.10;99.60;;;;;;6276488;22;19899;-86
2023/12/10 10:44:43;;;;;;;;;;;8.10;99.20;;;;;;6277508;22;19945;-86
2023/12/10 10:47:09;;;;;;;;;;;8.10;99.40;;;;;;6277724;22;19906;-86
2023/12/10 10:49:36;;;;;;;;;;;8.10;99.50;;;;;;6275964;22;19906;-84
2023/12/10 10:52:04;;;;;;;;;;;8.10;99.70;;;;;;6276820;22;19903;-83
2023/12/10 10:54:31;;;;;;;;;;;8.20;99.60;;;;;;6277420;22;19899;-84
2023/12/10 10:56:57;;;;;;;;;;;8.20;99.50;;;;;;6277574;22;19899;-83
2023/12/10 10:59:33;;;;;;;;;;;8.20;99.30;;;;;;6273219;22;19900;-84
2023/12/10 11:01:59;;;;;;;;;;;8.20;99.20;;;;;;6275504;22;19914;-84
2023/12/10 11:04:24;;;;;;;;;;;8.20;99.30;;;;;;6276759;22;20298;-84
2023/12/10 11:06:51;;;;;;;;;;;8.20;99.40;;;;;;6276294;22;19910;-83
2023/12/10 11:09:17;;;;;;;;;;;8.20;99.50;;;;;;6276613;22;19907;-84
2023/12/10 11:11:42;;;;;;;;;;;8.30;99.60;;;;;;6276854;22;19945;-83
2023/12/10 11:14:18;;;;;;;;;;;8.40;99.50;;;;;;6277175;22;19900;-83
2023/12/10 11:16:47;;;;;;;;;;;8.40;99.30;;;;;;6276790;22;19899;-83
2023/12/10 11:19:13;;;;;;;;;;;8.40;99.40;;;;;;6249780;22;19905;-82
2023/12/10 11:21:39;;;;;;;;;;;8.40;99.40;;;;;;6276864;22;19923;-83
2023/12/10 11:24:05;;;;;;;;;;;8.40;99.50;;;;;;6276379;22;19922;-83
2023/12/10 11:26:30;;;;;;;;;;;8.50;99.50;;;;;;6249273;22;19919;-83
2023/12/10 11:28:56;;;;;;;;;;;8.60;99.40;;;;;;6248963;22;19899;-83
2023/12/10 11:31:22;;;;;;;;;;;8.50;98.90;;;;;;6249118;22;20320;-83
2023/12/10 11:33:49;;;;;;;;;;;8.50;99.00;;;;;;6249326;22;20576;-83
2023/12/10 11:36:14;;;;;;;;;;;8.50;99.20;;;;;;6276067;22;19918;-82
2023/12/10 11:38:44;;;;;;;;;;;8.50;99.10;;;;;;6276225;22;19899;-82
2023/12/10 11:41:10;;;;;;;;;;;8.50;99.00;;;;;;6276489;22;19935;-83
2023/12/10 11:44:01;;;;;;;;;;;8.50;99.10;;;;;;6270608;22;19918;-84
2023/12/10 11:46:28;;;;;;;;;;;8.40;99.20;;;;;;6214959;23;19920;-84
2023/12/10 11:48:54;;;;;;;;;;;8.50;99.50;;;;;;6213766;23;19962;-83
2023/12/10 11:51:20;;;;;;;;;;;8.60;99.20;;;;;;6215155;23;19954;-84
2023/12/10 11:53:46;;;;;;;;;;;8.60;98.90;;;;;;6214977;23;19900;-87
2023/12/10 11:56:12;;;;;;;;;;;8.60;99.00;;;;;;6215824;23;19974;-87
2023/12/10 11:58:38;;;;;;;;;;;8.70;99.20;;;;;;6215531;23;19907;-87
2023/12/10 12:01:03;;;;;;;;;;;8.70;98.60;;;;;;6215339;23;20286;-88
2023/12/10 12:03:30;;;;;;;;;;;8.70;98.60;;;;;;6215353;23;19907;-87
2023/12/10 12:05:56;;;;;;;;;;;8.50;98.60;;;;;;6216407;23;19900;-87
2023/12/10 12:08:28;;;;;;;;;;;8.50;98.70;;;;;;6216361;23;20326;-84
2023/12/10 12:10:54;;;;;;;;;;;8.40;98.80;;;;;;6213693;23;19911;-84
2023/12/10 12:13:20;;;;;;;;;;;8.40;99.00;;;;;;6215216;23;19907;-83
2023/12/10 12:15:52;;;;;;;;;;;8.50;99.10;;;;;;6216529;23;19900;-88
2023/12/10 12:18:22;;;;;;;;;;;8.60;99.20;;;;;;6218587;23;19974;-87
2023/12/10 12:20:48;;;;;;;;;;;8.70;98.90;;;;;;6218206;23;19958;-87
2023/12/10 12:23:14;;;;;;;;;;;8.80;98.70;;;;;;6218335;23;19899;-87
2023/12/10 12:25:39;;;;;;;;;;;9.00;98.70;;;;;;6214491;23;19923;-87
2023/12/10 12:28:05;;;;;;;;;;;9.20;98.40;;;;;;6211605;23;19900;-86
2023/12/10 12:30:31;;;;;;;;;;;9.40;98.00;;;;;;6215236;23;19900;-93
2023/12/10 12:32:57;;;;;;;;;;;9.40;97.60;;;;;;6217888;23;19907;-89
2023/12/10 12:35:23;;;;;;;;;;;9.40;97.90;;;;;;6217819;23;20215;-85
2023/12/10 12:37:48;;;;;;;;;;;9.50;97.80;;;;;;6217706;23;19907;-84
2023/12/10 12:40:14;;;;;;;;;;;9.40;97.10;;;;;;6217712;23;19900;-84
2023/12/10 12:42:40;;;;;;;;;;;9.30;97.20;;;;;;6217529;23;20326;-83
2023/12/10 12:45:06;;;;;;;;;;;9.20;97.50;;;;;;6214447;23;19919;-87
2023/12/10 12:47:32;;;;;;;;;;;9.10;97.60;;;;;;6217496;23;20333;-88
2023/12/10 12:49:58;;;;;;;;;;;9.00;97.80;;;;;;6218475;23;19903;-88
2023/12/10 12:52:23;;;;;;;;;;;9.00;97.90;;;;;;6217350;23;19930;-83
2023/12/10 12:54:49;;;;;;;;;;;9.00;98.00;;;;;;6217348;23;20306;-84
2023/12/10 12:57:15;;;;;;;;;;;9.00;98.10;;;;;;6217405;23;20302;-84
2023/12/10 12:59:41;;;;;;;;;;;9.00;98.10;;;;;;6214773;23;19907;-83
2023/12/10 13:02:11;;;;;;;;;;;9.00;98.10;;;;;;6215372;23;19923;-84
2023/12/10 13:04:36;;;;;;;;;;;9.10;98.20;;;;;;6215640;23;19900;-84
2023/12/10 13:07:02;;;;;;;;;;;9.10;98.30;;;;;;6217020;23;19900;-86
2023/12/10 13:09:34;;;;;;;;;;;9.20;97.80;;;;;;6216026;23;20310;-88
2023/12/10 13:11:59;;;;;;;;;;;9.30;97.70;;;;;;6217774;23;20336;-90
2023/12/10 13:14:25;;;;;;;;;;;9.50;97.70;;;;;;6217714;23;19970;-89
2023/12/10 13:16:54;;;;;;;;;;;9.70;97.50;;;;;;6217392;23;19978;-89
2023/12/10 13:19:20;;;;;;;;;;;10.00;97.00;;;;;;6215534;23;19900;-89
2023/12/10 13:21:46;;;;;;;;;;;10.10;97.10;;;;;;6217722;23;20278;-89
2023/12/10 13:24:12;;;;;;;;;;;10.10;96.70;;;;;;6215949;23;19900;-90
2023/12/10 13:26:38;;;;;;;;;;;10.10;96.60;;;;;;6216856;23;19999;-89
2023/12/10 13:29:04;;;;;;;;;;;10.00;96.70;;;;;;6217301;23;19900;-89
2023/12/10 13:31:29;;;;;;;;;;;10.00;96.50;;;;;;6215520;23;19978;-89
2023/12/10 13:33:55;;;;;;;;;;;10.00;96.50;;;;;;6217033;23;20307;-88
2023/12/10 13:36:20;;;;;;;;;;;10.00;96.70;;;;;;6215655;23;19904;-89
2023/12/10 13:38:46;;;;;;;;;;;10.00;96.60;;;;;;6215347;23;19907;-85
2023/12/10 13:41:12;;;;;;;;;;;9.90;96.40;;;;;;6215090;23;19978;-85
2023/12/10 13:43:37;;;;;;;;;;;9.90;96.40;;;;;;6216595;23;20237;-87
2023/12/10 13:46:03;;;;;;;;;;;9.80;96.20;;;;;;6217172;23;19943;-84
2023/12/10 13:48:28;;;;;;;;;;;9.70;96.30;;;;;;6214722;23;19904;-85
2023/12/10 13:50:54;;;;;;;;;;;9.50;96.50;;;;;;6215601;23;20225;-85
2023/12/10 13:53:20;;;;;;;;;;;9.40;96.90;;;;;;6213985;23;19961;-85
2023/12/10 13:55:45;;;;;;;;;;;9.30;97.00;;;;;;6216775;23;19907;-88
2023/12/10 13:58:11;;;;;;;;;;;9.30;97.20;;;;;;6215074;23;19900;-89
2023/12/10 14:00:37;;;;;;;;;;;9.30;97.30;;;;;;6216711;23;19900;-89
2023/12/10 14:03:02;;;;;;;;;;;9.30;97.40;;;;;;6215093;23;19907;-89
2023/12/10 14:05:28;;;;;;;;;;;9.30;97.40;;;;;;6216123;23;19900;-88
2023/12/10 14:07:54;;;;;;;;;;;9.30;97.20;;;;;;6216418;23;19900;-88
2023/12/10 14:10:20;;;;;;;;;;;9.30;97.10;;;;;;6216462;23;19939;-89
2023/12/10 14:12:46;;;;;;;;;;;9.30;97.10;;;;;;6215017;23;20207;-89
2023/12/10 14:15:12;;;;;;;;;;;9.30;97.20;;;;;;6216534;23;19962;-89
2023/12/10 14:17:38;;;;;;;;;;;9.30;97.30;;;;;;6214870;23;19931;-89
2023/12/10 14:20:04;;;;;;;;;;;9.30;97.20;;;;;;6215057;23;20253;-89